sensor_id;sensor_type;location;lat;lon;timestamp;pressure;altitude;pressure_sealevel;temperature;humidity
43450;BME280;29041;42.266;23.110;2024-02-23T00:02:29;95596.63;;;7.03;100.00
43450;BME280;29041;42.266;23.110;2024-02-23T00:05:19;95581.47;;;6.90;100.00
43450;BME280;29041;42.266;23.110;2024-02-23T00:08:07;95577.94;;;7.03;100.00
43450;BME280;29041;42.266;23.110;2024-02-23T00:10:54;95560.50;;;6.83;100.00
43450;BME280;29041;42.266;23.110;2024-02-23T00:13:42;95557.19;;;6.77;100.00
43450;BME280;29041;42.266;23.110;2024-02-23T00:16:38;95553.31;;;6.83;100.00
43450;BME280;29041;42.266;23.110;2024-02-23T00:19:26;95567.31;;;6.89;100.00
43450;BME280;29041;42.266;23.110;2024-02-23T00:22:13;95562.44;;;6.69;100.00
43450;BME280;29041;42.266;23.110;2024-02-23T00:25:00;95561.94;;;6.66;100.00
43450;BME280;29041;42.266;23.110;2024-02-23T00:27:47;95554.88;;;6.62;100.00
43450;BME280;29041;42.266;23.110;2024-02-23T00:30:40;95563.31;;;6.78;100.00
43450;BME280;29041;42.266;23.110;2024-02-23T00:33:28;95538.88;;;6.62;100.00
43450;BME280;29041;42.266;23.110;2024-02-23T00:36:15;95540.50;;;6.72;100.00
43450;BME280;29041;42.266;23.110;2024-02-23T00:39:03;95490.22;;;6.42;100.00
43450;BME280;29041;42.266;23.110;2024-02-23T00:41:50;95550.09;;;6.73;100.00
43450;BME280;29041;42.266;23.110;2024-02-23T00:44:37;95526.69;;;6.70;100.00
43450;BME280;29041;42.266;23.110;2024-02-23T00:47:24;95535.03;;;6.77;100.00
43450;BME280;29041;42.266;23.110;2024-02-23T00:50:13;95544.56;;;6.69;100.00
43450;BME280;29041;42.266;23.110;2024-02-23T00:53:01;95548.31;;;6.68;100.00
43450;BME280;29041;42.266;23.110;2024-02-23T00:55:48;95534.72;;;6.78;100.00
43450;BME280;29041;42.266;23.110;2024-02-23T00:58:36;95539.06;;;6.65;100.00
43450;BME280;29041;42.266;23.110;2024-02-23T01:01:23;95528.94;;;6.76;100.00
43450;BME280;29041;42.266;23.110;2024-02-23T01:04:12;95524.28;;;6.45;100.00
43450;BME280;29041;42.266;23.110;2024-02-23T01:07:00;95536.22;;;6.48;100.00
43450;BME280;29041;42.266;23.110;2024-02-23T01:09:47;95522.91;;;6.34;100.00
43450;BME280;29041;42.266;23.110;2024-02-23T01:12:35;95487.63;;;6.14;100.00
43450;BME280;29041;42.266;23.110;2024-02-23T01:15:22;95522.16;;;6.19;100.00
43450;BME280;29041;42.266;23.110;2024-02-23T01:18:09;95496.31;;;6.06;100.00
43450;BME280;29041;42.266;23.110;2024-02-23T01:20:56;95517.34;;;6.08;100.00
43450;BME280;29041;42.266;23.110;2024-02-23T01:23:45;95490.09;;;5.97;100.00
43450;BME280;29041;42.266;23.110;2024-02-23T01:26:32;95525.44;;;6.02;100.00
43450;BME280;29041;42.266;23.110;2024-02-23T01:29:19;95527.34;;;6.02;100.00
43450;BME280;29041;42.266;23.110;2024-02-23T01:32:07;95523.94;;;5.96;100.00
43450;BME280;29041;42.266;23.110;2024-02-23T01:34:55;95504.59;;;5.91;100.00
43450;BME280;29041;42.266;23.110;2024-02-23T01:37:42;95519.53;;;6.06;100.00
43450;BME280;29041;42.266;23.110;2024-02-23T01:40:30;95516.34;;;5.90;100.00
43450;BME280;29041;42.266;23.110;2024-02-23T01:43:17;95517.16;;;5.90;100.00
43450;BME280;29041;42.266;23.110;2024-02-23T01:46:04;95519.41;;;5.97;100.00
43450;BME280;29041;42.266;23.110;2024-02-23T01:48:52;95513.88;;;5.93;100.00
43450;BME280;29041;42.266;23.110;2024-02-23T01:51:39;95502.75;;;5.91;100.00
43450;BME280;29041;42.266;23.110;2024-02-23T01:54:27;95504.50;;;5.96;100.00
43450;BME280;29041;42.266;23.110;2024-02-23T01:57:18;95498.59;;;5.85;100.00
43450;BME280;29041;42.266;23.110;2024-02-23T02:00:07;95497.31;;;5.82;100.00
43450;BME280;29041;42.266;23.110;2024-02-23T02:02:56;95502.16;;;5.80;100.00
43450;BME280;29041;42.266;23.110;2024-02-23T02:05:44;95493.78;;;5.73;100.00
43450;BME280;29041;42.266;23.110;2024-02-23T02:08:33;95493.16;;;5.90;100.00
43450;BME280;29041;42.266;23.110;2024-02-23T02:11:20;95499.88;;;5.87;100.00
43450;BME280;29041;42.266;23.110;2024-02-23T02:14:09;95497.22;;;5.87;100.00
43450;BME280;29041;42.266;23.110;2024-02-23T02:16:56;95506.56;;;5.85;100.00
43450;BME280;29041;42.266;23.110;2024-02-23T02:19:46;95495.34;;;6.02;100.00
43450;BME280;29041;42.266;23.110;2024-02-23T02:22:36;95490.81;;;6.02;100.00
43450;BME280;29041;42.266;23.110;2024-02-23T02:25:23;95476.38;;;5.90;100.00
43450;BME280;29041;42.266;23.110;2024-02-23T02:28:11;95479.34;;;5.88;100.00
43450;BME280;29041;42.266;23.110;2024-02-23T02:31:19;95486.75;;;6.05;100.00
43450;BME280;29041;42.266;23.110;2024-02-23T02:34:06;95490.59;;;6.13;100.00
43450;BME280;29041;42.266;23.110;2024-02-23T02:36:54;95493.94;;;6.18;100.00
43450;BME280;29041;42.266;23.110;2024-02-23T02:39:41;95487.47;;;6.33;100.00
43450;BME280;29041;42.266;23.110;2024-02-23T02:42:28;95482.09;;;6.11;100.00
43450;BME280;29041;42.266;23.110;2024-02-23T02:45:15;95485.53;;;6.11;100.00
43450;BME280;29041;42.266;23.110;2024-02-23T02:48:05;95464.03;;;6.08;100.00
43450;BME280;29041;42.266;23.110;2024-02-23T02:50:52;95469.16;;;6.18;100.00
43450;BME280;29041;42.266;23.110;2024-02-23T02:53:40;95476.78;;;6.11;100.00
43450;BME280;29041;42.266;23.110;2024-02-23T02:56:27;95471.13;;;6.12;100.00
43450;BME280;29041;42.266;23.110;2024-02-23T02:59:14;95481.28;;;6.24;100.00
43450;BME280;29041;42.266;23.110;2024-02-23T03:02:02;95487.69;;;6.23;100.00
43450;BME280;29041;42.266;23.110;2024-02-23T03:04:51;95469.94;;;6.18;100.00
43450;BME280;29041;42.266;23.110;2024-02-23T03:07:40;95483.13;;;6.01;100.00
43450;BME280;29041;42.266;23.110;2024-02-23T03:10:28;95465.84;;;5.84;100.00
43450;BME280;29041;42.266;23.110;2024-02-23T03:13:15;95462.97;;;5.95;100.00
43450;BME280;29041;42.266;23.110;2024-02-23T03:16:03;95474.59;;;5.85;100.00
43450;BME280;29041;42.266;23.110;2024-02-23T03:18:50;95453.72;;;5.64;100.00
43450;BME280;29041;42.266;23.110;2024-02-23T03:21:41;95447.88;;;5.90;100.00
43450;BME280;29041;42.266;23.110;2024-02-23T03:24:28;95453.03;;;5.72;100.00
43450;BME280;29041;42.266;23.110;2024-02-23T03:27:15;95470.88;;;6.00;100.00
43450;BME280;29041;42.266;23.110;2024-02-23T03:30:03;95462.78;;;5.91;100.00
43450;BME280;29041;42.266;23.110;2024-02-23T03:32:51;95445.03;;;5.86;100.00
43450;BME280;29041;42.266;23.110;2024-02-23T03:35:38;95449.34;;;5.82;100.00
43450;BME280;29041;42.266;23.110;2024-02-23T03:38:26;95467.50;;;5.94;100.00
43450;BME280;29041;42.266;23.110;2024-02-23T03:41:14;95472.03;;;5.94;100.00
43450;BME280;29041;42.266;23.110;2024-02-23T03:44:01;95482.78;;;5.88;100.00
43450;BME280;29041;42.266;23.110;2024-02-23T03:46:48;95466.72;;;5.80;100.00
43450;BME280;29041;42.266;23.110;2024-02-23T03:49:36;95470.78;;;5.91;100.00
43450;BME280;29041;42.266;23.110;2024-02-23T03:52:23;95492.56;;;5.93;100.00
43450;BME280;29041;42.266;23.110;2024-02-23T03:55:11;95489.13;;;5.93;100.00
43450;BME280;29041;42.266;23.110;2024-02-23T03:57:58;95476.38;;;5.90;100.00
43450;BME280;29041;42.266;23.110;2024-02-23T04:00:46;95510.75;;;6.05;100.00
43450;BME280;29041;42.266;23.110;2024-02-23T04:03:33;95500.28;;;5.95;100.00
43450;BME280;29041;42.266;23.110;2024-02-23T04:06:20;95492.75;;;5.97;100.00
43450;BME280;29041;42.266;23.110;2024-02-23T04:09:07;95492.66;;;5.88;100.00
43450;BME280;29041;42.266;23.110;2024-02-23T04:11:56;95479.75;;;5.81;100.00
43450;BME280;29041;42.266;23.110;2024-02-23T04:14:43;95486.75;;;5.91;100.00
43450;BME280;29041;42.266;23.110;2024-02-23T04:17:30;95475.22;;;5.68;100.00
43450;BME280;29041;42.266;23.110;2024-02-23T04:20:17;95492.09;;;5.77;100.00
43450;BME280;29041;42.266;23.110;2024-02-23T04:23:04;95489.44;;;5.77;100.00
43450;BME280;29041;42.266;23.110;2024-02-23T04:25:52;95491.97;;;5.82;100.00
43450;BME280;29041;42.266;23.110;2024-02-23T04:28:41;95489.13;;;5.79;100.00
43450;BME280;29041;42.266;23.110;2024-02-23T04:31:28;95455.91;;;5.34;100.00
43450;BME280;29041;42.266;23.110;2024-02-23T04:34:15;95463.69;;;5.45;100.00
43450;BME280;29041;42.266;23.110;2024-02-23T04:37:03;95492.38;;;5.48;100.00
43450;BME280;29041;42.266;23.110;2024-02-23T04:39:50;95474.16;;;5.41;100.00
43450;BME280;29041;42.266;23.110;2024-02-23T04:42:37;95489.13;;;5.51;100.00
43450;BME280;29041;42.266;23.110;2024-02-23T04:45:26;95479.16;;;5.43;100.00
43450;BME280;29041;42.266;23.110;2024-02-23T04:48:13;95485.09;;;5.53;100.00
43450;BME280;29041;42.266;23.110;2024-02-23T04:51:00;95435.41;;;5.35;100.00
43450;BME280;29041;42.266;23.110;2024-02-23T04:53:47;95478.50;;;5.65;100.00
43450;BME280;29041;42.266;23.110;2024-02-23T04:56:34;95480.97;;;5.61;100.00
43450;BME280;29041;42.266;23.110;2024-02-23T04:59:21;95482.50;;;5.62;100.00
43450;BME280;29041;42.266;23.110;2024-02-23T05:02:10;95484.91;;;5.64;100.00
43450;BME280;29041;42.266;23.110;2024-02-23T05:04:57;95490.31;;;5.59;100.00
43450;BME280;29041;42.266;23.110;2024-02-23T05:07:44;95480.16;;;5.61;100.00
43450;BME280;29041;42.266;23.110;2024-02-23T05:10:31;95479.88;;;5.48;100.00
43450;BME280;29041;42.266;23.110;2024-02-23T05:13:19;95476.41;;;5.48;100.00
43450;BME280;29041;42.266;23.110;2024-02-23T05:16:06;95461.44;;;5.52;100.00
43450;BME280;29041;42.266;23.110;2024-02-23T05:18:54;95481.75;;;5.62;100.00
43450;BME280;29041;42.266;23.110;2024-02-23T05:21:42;95446.63;;;5.46;100.00
43450;BME280;29041;42.266;23.110;2024-02-23T05:24:29;95473.75;;;5.62;100.00
43450;BME280;29041;42.266;23.110;2024-02-23T05:27:18;95486.75;;;5.77;100.00
43450;BME280;29041;42.266;23.110;2024-02-23T05:30:06;95483.78;;;5.79;100.00
43450;BME280;29041;42.266;23.110;2024-02-23T05:32:54;95474.34;;;5.45;100.00
43450;BME280;29041;42.266;23.110;2024-02-23T05:35:42;95492.09;;;5.63;100.00
43450;BME280;29041;42.266;23.110;2024-02-23T05:38:30;95490.59;;;5.57;100.00
43450;BME280;29041;42.266;23.110;2024-02-23T05:41:18;95499.19;;;5.40;100.00
43450;BME280;29041;42.266;23.110;2024-02-23T05:44:05;95489.50;;;5.44;100.00
43450;BME280;29041;42.266;23.110;2024-02-23T05:46:52;95482.22;;;5.50;100.00
43450;BME280;29041;42.266;23.110;2024-02-23T05:49:39;95505.00;;;5.42;100.00
43450;BME280;29041;42.266;23.110;2024-02-23T05:52:27;95517.25;;;5.43;100.00
43450;BME280;29041;42.266;23.110;2024-02-23T05:55:15;95509.94;;;5.35;100.00
43450;BME280;29041;42.266;23.110;2024-02-23T05:58:02;95504.88;;;5.19;100.00
43450;BME280;29041;42.266;23.110;2024-02-23T06:00:49;95511.69;;;5.26;100.00
43450;BME280;29041;42.266;23.110;2024-02-23T06:03:37;95522.03;;;5.27;100.00
43450;BME280;29041;42.266;23.110;2024-02-23T06:06:24;95523.75;;;5.51;100.00
43450;BME280;29041;42.266;23.110;2024-02-23T06:09:13;95513.88;;;5.51;100.00
43450;BME280;29041;42.266;23.110;2024-02-23T06:12:01;95534.13;;;8.16;100.00
43450;BME280;29041;42.266;23.110;2024-02-23T06:14:48;95543.41;;;9.59;100.00
43450;BME280;29041;42.266;23.110;2024-02-23T06:17:35;95547.25;;;10.18;100.00
43450;BME280;29041;42.266;23.110;2024-02-23T06:20:25;95537.50;;;10.86;100.00
43450;BME280;29041;42.266;23.110;2024-02-23T06:23:12;95549.31;;;10.12;100.00
43450;BME280;29041;42.266;23.110;2024-02-23T06:26:00;95549.34;;;7.98;100.00
43450;BME280;29041;42.266;23.110;2024-02-23T06:28:47;95549.59;;;12.70;100.00
43450;BME280;29041;42.266;23.110;2024-02-23T06:31:35;95524.09;;;13.66;92.88
43450;BME280;29041;42.266;23.110;2024-02-23T06:34:22;95544.44;;;13.35;96.82
43450;BME280;29041;42.266;23.110;2024-02-23T06:37:09;95536.50;;;13.70;93.44
43450;BME280;29041;42.266;23.110;2024-02-23T06:39:56;95544.66;;;14.38;90.35
43450;BME280;29041;42.266;23.110;2024-02-23T06:42:45;95536.22;;;12.21;100.00
43450;BME280;29041;42.266;23.110;2024-02-23T06:45:32;95544.81;;;10.76;100.00
43450;BME280;29041;42.266;23.110;2024-02-23T06:48:20;95550.19;;;9.48;100.00
43450;BME280;29041;42.266;23.110;2024-02-23T06:51:08;95542.56;;;8.76;100.00
43450;BME280;29041;42.266;23.110;2024-02-23T06:53:55;95549.50;;;8.77;100.00
43450;BME280;29041;42.266;23.110;2024-02-23T06:56:42;95534.31;;;12.21;100.00
43450;BME280;29041;42.266;23.110;2024-02-23T06:59:30;95547.78;;;12.21;100.00
43450;BME280;29041;42.266;23.110;2024-02-23T07:02:18;95553.75;;;13.98;92.45
43450;BME280;29041;42.266;23.110;2024-02-23T07:05:05;95526.28;;;14.99;87.79
43450;BME280;29041;42.266;23.110;2024-02-23T07:07:53;95541.16;;;14.02;89.29
43450;BME280;29041;42.266;23.110;2024-02-23T07:10:41;95556.78;;;14.28;93.16
43450;BME280;29041;42.266;23.110;2024-02-23T07:13:28;95530.44;;;13.29;97.42
43450;BME280;29041;42.266;23.110;2024-02-23T07:16:17;95546.50;;;12.97;97.25
43450;BME280;29041;42.266;23.110;2024-02-23T07:19:04;95555.84;;;12.46;97.25
43450;BME280;29041;42.266;23.110;2024-02-23T07:21:51;95539.06;;;10.44;100.00
43450;BME280;29041;42.266;23.110;2024-02-23T07:24:39;95547.03;;;10.95;100.00
43450;BME280;29041;42.266;23.110;2024-02-23T07:27:26;95524.66;;;12.33;100.00
43450;BME280;29041;42.266;23.110;2024-02-23T07:30:14;95527.34;;;14.23;89.49
43450;BME280;29041;42.266;23.110;2024-02-23T07:33:03;95544.63;;;12.85;96.09
43450;BME280;29041;42.266;23.110;2024-02-23T07:35:50;95537.13;;;13.63;91.33
43450;BME280;29041;42.266;23.110;2024-02-23T07:38:38;95525.72;;;14.70;84.60
43450;BME280;29041;42.266;23.110;2024-02-23T07:41:25;95535.72;;;14.69;82.91
43450;BME280;29041;42.266;23.110;2024-02-23T07:44:12;95524.22;;;14.92;81.47
43450;BME280;29041;42.266;23.110;2024-02-23T07:46:59;95514.94;;;15.32;79.50
43450;BME280;29041;42.266;23.110;2024-02-23T07:49:48;95509.88;;;13.69;86.40
43450;BME280;29041;42.266;23.110;2024-02-23T07:52:35;95520.81;;;14.24;86.56
43450;BME280;29041;42.266;23.110;2024-02-23T07:55:22;95499.66;;;15.86;77.87
43450;BME280;29041;42.266;23.110;2024-02-23T07:58:09;95514.97;;;14.73;82.54
43450;BME280;29041;42.266;23.110;2024-02-23T08:00:58;95508.84;;;15.82;75.58
43450;BME280;29041;42.266;23.110;2024-02-23T08:03:45;95522.19;;;16.44;73.05
43450;BME280;29041;42.266;23.110;2024-02-23T08:06:36;95527.44;;;17.21;70.71
43450;BME280;29041;42.266;23.110;2024-02-23T08:09:23;95509.84;;;16.77;71.38
43450;BME280;29041;42.266;23.110;2024-02-23T08:12:10;95502.03;;;18.93;64.60
43450;BME280;29041;42.266;23.110;2024-02-23T08:14:59;95502.19;;;16.26;70.62
43450;BME280;29041;42.266;23.110;2024-02-23T08:17:46;95499.41;;;16.79;70.41
43450;BME280;29041;42.266;23.110;2024-02-23T08:20:33;95500.25;;;16.84;66.43
43450;BME280;29041;42.266;23.110;2024-02-23T08:23:22;95485.56;;;17.56;64.96
43450;BME280;29041;42.266;23.110;2024-02-23T08:26:09;95492.97;;;18.75;59.06
43450;BME280;29041;42.266;23.110;2024-02-23T08:28:56;95481.78;;;18.91;59.05
43450;BME280;29041;42.266;23.110;2024-02-23T08:31:44;95486.75;;;18.70;58.66
43450;BME280;29041;42.266;23.110;2024-02-23T08:34:31;95495.00;;;17.32;61.91
43450;BME280;29041;42.266;23.110;2024-02-23T08:37:19;95513.72;;;17.86;60.02
43450;BME280;29041;42.266;23.110;2024-02-23T08:40:09;95497.06;;;18.39;60.56
43450;BME280;29041;42.266;23.110;2024-02-23T08:42:56;95504.66;;;18.82;59.52
43450;BME280;29041;42.266;23.110;2024-02-23T08:45:43;95502.13;;;19.22;57.33
43450;BME280;29041;42.266;23.110;2024-02-23T08:48:31;95487.06;;;19.86;53.56
43450;BME280;29041;42.266;23.110;2024-02-23T08:51:18;95493.59;;;17.94;60.28
43450;BME280;29041;42.266;23.110;2024-02-23T08:54:05;95490.25;;;18.08;59.67
43450;BME280;29041;42.266;23.110;2024-02-23T08:56:55;95496.19;;;17.76;61.61
43450;BME280;29041;42.266;23.110;2024-02-23T08:59:42;95490.91;;;19.53;56.80
43450;BME280;29041;42.266;23.110;2024-02-23T09:02:29;95504.88;;;18.48;57.91
43450;BME280;29041;42.266;23.110;2024-02-23T09:05:17;95466.69;;;18.23;58.95
43450;BME280;29041;42.266;23.110;2024-02-23T09:08:06;95491.06;;;18.12;60.53
43450;BME280;29041;42.266;23.110;2024-02-23T09:10:56;95500.66;;;18.58;59.92
43450;BME280;29041;42.266;23.110;2024-02-23T09:13:47;95502.88;;;19.15;53.66
43450;BME280;29041;42.266;23.110;2024-02-23T09:16:37;95505.63;;;17.48;58.29
43450;BME280;29041;42.266;23.110;2024-02-23T09:19:24;95508.34;;;16.23;58.66
43450;BME280;29041;42.266;23.110;2024-02-23T09:22:12;95512.59;;;16.24;59.55
43450;BME280;29041;42.266;23.110;2024-02-23T09:24:59;95524.56;;;16.49;58.81
43450;BME280;29041;42.266;23.110;2024-02-23T09:27:46;95512.81;;;16.11;60.08
43450;BME280;29041;42.266;23.110;2024-02-23T09:30:35;95517.53;;;16.18;60.71
43450;BME280;29041;42.266;23.110;2024-02-23T09:33:22;95504.84;;;16.49;61.72
43450;BME280;29041;42.266;23.110;2024-02-23T09:36:09;95497.03;;;16.44;63.59
43450;BME280;29041;42.266;23.110;2024-02-23T09:38:56;95505.34;;;15.81;61.66
43450;BME280;29041;42.266;23.110;2024-02-23T09:41:44;95512.16;;;16.45;63.23
43450;BME280;29041;42.266;23.110;2024-02-23T09:44:32;95503.50;;;16.93;57.08
43450;BME280;29041;42.266;23.110;2024-02-23T09:47:21;95494.09;;;16.90;57.90
43450;BME280;29041;42.266;23.110;2024-02-23T09:50:10;95499.16;;;17.22;57.93
43450;BME280;29041;42.266;23.110;2024-02-23T09:52:58;95490.59;;;16.56;57.67
43450;BME280;29041;42.266;23.110;2024-02-23T09:55:45;95494.81;;;16.53;57.46
43450;BME280;29041;42.266;23.110;2024-02-23T09:58:34;95483.22;;;17.17;55.38
43450;BME280;29041;42.266;23.110;2024-02-23T10:01:27;95481.88;;;17.38;54.63
43450;BME280;29041;42.266;23.110;2024-02-23T10:04:16;95498.84;;;17.27;56.13
43450;BME280;29041;42.266;23.110;2024-02-23T10:07:03;95493.13;;;17.02;55.04
43450;BME280;29041;42.266;23.110;2024-02-23T10:09:52;95462.63;;;17.12;56.29
43450;BME280;29041;42.266;23.110;2024-02-23T10:12:40;95468.69;;;16.38;58.03
43450;BME280;29041;42.266;23.110;2024-02-23T10:15:29;95470.94;;;16.62;56.94
43450;BME280;29041;42.266;23.110;2024-02-23T10:18:16;95482.03;;;16.84;55.37
43450;BME280;29041;42.266;23.110;2024-02-23T10:21:05;95470.88;;;16.89;55.72
43450;BME280;29041;42.266;23.110;2024-02-23T10:23:53;95477.06;;;17.62;53.40
43450;BME280;29041;42.266;23.110;2024-02-23T10:26:40;95452.41;;;17.85;51.65
43450;BME280;29041;42.266;23.110;2024-02-23T10:29:27;95466.16;;;16.83;55.81
43450;BME280;29041;42.266;23.110;2024-02-23T10:32:15;95467.84;;;16.60;55.72
43450;BME280;29041;42.266;23.110;2024-02-23T10:35:03;95452.69;;;17.69;55.27
43450;BME280;29041;42.266;23.110;2024-02-23T10:37:56;95439.94;;;17.76;55.35
43450;BME280;29041;42.266;23.110;2024-02-23T10:40:43;95466.09;;;16.18;57.24
43450;BME280;29041;42.266;23.110;2024-02-23T10:43:43;95445.75;;;17.30;54.09
43450;BME280;29041;42.266;23.110;2024-02-23T10:46:32;95465.06;;;17.63;51.20
43450;BME280;29041;42.266;23.110;2024-02-23T10:49:19;95445.28;;;17.66;51.69
43450;BME280;29041;42.266;23.110;2024-02-23T10:52:09;95458.59;;;16.95;52.97
43450;BME280;29041;42.266;23.110;2024-02-23T10:55:00;95452.16;;;16.46;54.59
43450;BME280;29041;42.266;23.110;2024-02-23T10:57:51;95440.94;;;15.91;56.76
43450;BME280;29041;42.266;23.110;2024-02-23T11:00:40;95437.09;;;17.58;54.39
43450;BME280;29041;42.266;23.110;2024-02-23T11:03:28;95414.59;;;17.58;51.38
43450;BME280;29041;42.266;23.110;2024-02-23T11:06:16;95463.66;;;16.67;54.74
43450;BME280;29041;42.266;23.110;2024-02-23T11:09:06;95441.13;;;16.05;56.74
43450;BME280;29041;42.266;23.110;2024-02-23T11:11:57;95424.28;;;17.14;54.33
43450;BME280;29041;42.266;23.110;2024-02-23T11:14:44;95426.72;;;17.23;52.41
43450;BME280;29041;42.266;23.110;2024-02-23T11:17:33;95428.25;;;18.24;49.04
43450;BME280;29041;42.266;23.110;2024-02-23T11:20:22;95426.94;;;17.97;50.43
43450;BME280;29041;42.266;23.110;2024-02-23T11:23:14;95413.19;;;17.75;49.54
43450;BME280;29041;42.266;23.110;2024-02-23T11:26:06;95410.56;;;18.56;48.36
43450;BME280;29041;42.266;23.110;2024-02-23T11:28:55;95409.91;;;18.95;48.35
43450;BME280;29041;42.266;23.110;2024-02-23T11:31:45;95389.09;;;18.33;49.47
43450;BME280;29041;42.266;23.110;2024-02-23T11:34:34;95400.31;;;17.65;50.55
43450;BME280;29041;42.266;23.110;2024-02-23T11:37:21;95389.66;;;17.94;48.94
43450;BME280;29041;42.266;23.110;2024-02-23T11:40:10;95394.00;;;17.53;50.13
43450;BME280;29041;42.266;23.110;2024-02-23T11:42:59;95393.84;;;18.54;48.00
43450;BME280;29041;42.266;23.110;2024-02-23T11:45:48;95381.59;;;19.14;45.88
43450;BME280;29041;42.266;23.110;2024-02-23T11:48:37;95400.53;;;18.85;47.05
43450;BME280;29041;42.266;23.110;2024-02-23T11:51:24;95385.19;;;18.30;48.79
43450;BME280;29041;42.266;23.110;2024-02-23T11:54:13;95406.25;;;17.85;48.22
43450;BME280;29041;42.266;23.110;2024-02-23T11:57:01;95380.69;;;17.89;48.12
43450;BME280;29041;42.266;23.110;2024-02-23T11:59:50;95394.31;;;17.41;50.19
43450;BME280;29041;42.266;23.110;2024-02-23T12:02:39;95379.28;;;18.10;48.74
43450;BME280;29041;42.266;23.110;2024-02-23T12:05:26;95383.69;;;18.44;47.11
43450;BME280;29041;42.266;23.110;2024-02-23T12:08:14;95365.69;;;18.06;47.75
43450;BME280;29041;42.266;23.110;2024-02-23T12:11:02;95367.88;;;18.67;45.88
43450;BME280;29041;42.266;23.110;2024-02-23T12:13:55;95359.94;;;17.59;48.72
43450;BME280;29041;42.266;23.110;2024-02-23T12:16:42;95340.19;;;18.40;47.79
43450;BME280;29041;42.266;23.110;2024-02-23T12:19:31;95374.66;;;18.18;47.86
43450;BME280;29041;42.266;23.110;2024-02-23T12:22:18;95365.25;;;19.07;45.84
43450;BME280;29041;42.266;23.110;2024-02-23T12:25:06;95375.69;;;18.76;46.52
43450;BME280;29041;42.266;23.110;2024-02-23T12:27:59;95370.41;;;18.17;45.89
43450;BME280;29041;42.266;23.110;2024-02-23T12:30:47;95375.19;;;17.79;47.78
43450;BME280;29041;42.266;23.110;2024-02-23T12:33:47;95366.63;;;18.43;46.29
43450;BME280;29041;42.266;23.110;2024-02-23T12:36:39;95357.34;;;18.48;45.48
43450;BME280;29041;42.266;23.110;2024-02-23T12:39:29;95363.91;;;18.39;44.80
43450;BME280;29041;42.266;23.110;2024-02-23T12:42:18;95358.00;;;18.27;45.50
43450;BME280;29041;42.266;23.110;2024-02-23T12:45:05;95363.03;;;18.24;45.75
43450;BME280;29041;42.266;23.110;2024-02-23T12:47:55;95347.66;;;18.58;45.54
43450;BME280;29041;42.266;23.110;2024-02-23T12:50:42;95346.63;;;19.16;43.98
43450;BME280;29041;42.266;23.110;2024-02-23T12:53:33;95353.53;;;18.78;45.00
43450;BME280;29041;42.266;23.110;2024-02-23T12:56:21;95355.00;;;18.46;45.96
43450;BME280;29041;42.266;23.110;2024-02-23T12:59:10;95320.13;;;17.82;46.82
43450;BME280;29041;42.266;23.110;2024-02-23T13:01:58;95340.28;;;17.25;48.59
43450;BME280;29041;42.266;23.110;2024-02-23T13:04:45;95356.50;;;17.66;47.47
43450;BME280;29041;42.266;23.110;2024-02-23T13:07:34;95358.31;;;17.51;47.61
43450;BME280;29041;42.266;23.110;2024-02-23T13:10:27;95343.34;;;17.72;48.17
43450;BME280;29041;42.266;23.110;2024-02-23T13:13:14;95336.66;;;17.06;49.44
43450;BME280;29041;42.266;23.110;2024-02-23T13:16:04;95315.03;;;18.61;46.07
43450;BME280;29041;42.266;23.110;2024-02-23T13:18:52;95334.34;;;18.27;46.77
43450;BME280;29041;42.266;23.110;2024-02-23T13:21:39;95322.59;;;18.01;47.58
43450;BME280;29041;42.266;23.110;2024-02-23T13:24:26;95340.50;;;18.17;47.00
43450;BME280;29041;42.266;23.110;2024-02-23T13:27:15;95324.75;;;17.77;48.89
43450;BME280;29041;42.266;23.110;2024-02-23T13:30:03;95350.31;;;18.39;46.32
43450;BME280;29041;42.266;23.110;2024-02-23T13:32:50;95323.19;;;17.73;47.37
43450;BME280;29041;42.266;23.110;2024-02-23T13:35:37;95328.25;;;17.74;48.76
43450;BME280;29041;42.266;23.110;2024-02-23T13:38:24;95323.66;;;17.89;47.45
43450;BME280;29041;42.266;23.110;2024-02-23T13:41:12;95342.56;;;17.16;49.43
43450;BME280;29041;42.266;23.110;2024-02-23T13:44:00;95355.38;;;16.81;51.21
43450;BME280;29041;42.266;23.110;2024-02-23T13:46:48;95327.66;;;16.57;51.34
43450;BME280;29041;42.266;23.110;2024-02-23T13:49:35;95343.22;;;16.30;51.91
43450;BME280;29041;42.266;23.110;2024-02-23T13:52:23;95346.13;;;16.14;52.54
43450;BME280;29041;42.266;23.110;2024-02-23T13:55:10;95349.28;;;15.89;53.99
43450;BME280;29041;42.266;23.110;2024-02-23T13:57:57;95347.38;;;15.66;55.04
43450;BME280;29041;42.266;23.110;2024-02-23T14:00:46;95356.28;;;15.67;54.82
43450;BME280;29041;42.266;23.110;2024-02-23T14:03:33;95347.53;;;15.77;55.02
43450;BME280;29041;42.266;23.110;2024-02-23T14:06:20;95348.75;;;16.07;53.50
43450;BME280;29041;42.266;23.110;2024-02-23T14:09:08;95354.84;;;15.73;54.07
43450;BME280;29041;42.266;23.110;2024-02-23T14:11:55;95362.94;;;15.73;54.09
43450;BME280;29041;42.266;23.110;2024-02-23T14:14:43;95361.03;;;16.31;52.66
43450;BME280;29041;42.266;23.110;2024-02-23T14:17:34;95361.56;;;15.83;54.23
43450;BME280;29041;42.266;23.110;2024-02-23T14:20:28;95353.28;;;15.72;54.89
43450;BME280;29041;42.266;23.110;2024-02-23T14:23:21;95348.38;;;15.54;55.81
43450;BME280;29041;42.266;23.110;2024-02-23T14:26:09;95361.84;;;15.51;56.37
43450;BME280;29041;42.266;23.110;2024-02-23T14:28:56;95354.69;;;15.12;57.93
43450;BME280;29041;42.266;23.110;2024-02-23T14:31:49;95367.22;;;15.24;56.81
43450;BME280;29041;42.266;23.110;2024-02-23T14:34:38;95367.22;;;15.24;57.70
43450;BME280;29041;42.266;23.110;2024-02-23T14:37:25;95364.22;;;15.29;57.28
43450;BME280;29041;42.266;23.110;2024-02-23T14:40:13;95367.16;;;15.20;58.42